Arcola, Indiana
Current Conditions -  °F | °C
As of 2:54 AM on Friday 19 Dec 2014 (Local Time) from KFWA Reporting Station
Overcast Overcast  
Wind Chill: 17°   Ceiling: 3000
Heat Index: 27°   Visibility: 8mi
Dew Point: 22°   Wind: 10mph
Humidity: 81%   Direction: 280°W
Pressure: 30.25"   Gusts: NA
Location:  41.1°N, 85.29°W
Report Text: KFWA 190754Z 28009KT 8SM OVC030 M03/M06 A3025 RMK AO2 SLP253 T10281056
Loading
Personal Weather Stations






























Interactive Weather Map New forecast layout! Learn more

10-Day Weather Forecast

Advertisements
Track Severe Weather on mobile